San Lorenzo, CA

2:44 AM PDT on April 18, 2015 (GMT -0700)
KCASANLO2 | | Change Station
CLOSE
Current Station
Personal Weather Station
Location: San Lorenzo, CA
Elevation: 13 ft
Nearby Weather Stations

Elev 13 ft 37.67 °N, 122.14 °W | Updated 7 minutes ago

Clear
Clear
52.0 °F
Feels Like 52.0 °F
N
3.0
Wind Variable Wind from North
Gusts 4.0 mph

Today
High -- | Low -- °F
--% Chance of Precip.
Yesterday
High -- | Low -- °F
Precip. -- in
6:29 AM 7:46 PM
Waning Crescent, 0% visible
Pressure 30.09 in
Visibility 7.0 miles
Clouds Clear
Dew Point 50 °F
Humidity 94%
Rainfall 0.00 in
Snow Depth Not available.
UV 0 out of 12
Pollen 8.80 out of 12
Air Quality Not available.
Flu Activity Sporadic
METAR KHWD 180854Z AUTO 32004KT 7SM CLR 10/08 A3006 RMK AO2 SLP187 T01000083 58004

More Conditions Fewer Conditions

Pressure 30.09 in
Visibility 7.0 miles
Clouds Clear
Dew Point 50 °F
Humidity 94%
Rainfall 0.00 in
Snow Depth Not available.
UV 0 out of 12
Pollen 8.80 out of 12
Air Quality Not available.
Flu Activity Sporadic
METAR KHWD 180854Z AUTO 32004KT 7SM CLR 10/08 A3006 RMK AO2 SLP187 T01000083 58004

More Conditions Fewer Conditions

10-Day Weather Forecast

Almanac

Astronomy

Apr. 18, 2015 Rise Set
Actual Time
Civil Twilight
Nautical Twilight
Astronomical Twilight
Moon
Length of Visible Light
Length of Day
Tomorrow will be .
, % of the Moon is Illuminated

Today's Extremes

State Highs State Lows

Community

WunderPhotos

Upload Photos

1,814,350 photos uploaded!

WunderBlogs® & News

Nearby

Air Quality

  Air Quality AQ Index Pollutant
Not available.

Snow Depth

Station Depth Elevation

Earthquake Activity

City Distance Mag. Time & Date
Minimum magnitude displayed is 2.5.

Coastal Water Temperatures

Place Temperature

Stations

Nearby Weather Stations

Station Location Temp. Windchill Dew Point Humidity Wind Precip. Elev Updated Type